createdAt,value
2019-05-14T00:00:21.622Z,62.80
2019-05-14T00:00:56.946Z,62.80
2019-05-14T00:01:31.914Z,62.90
2019-05-14T00:02:06.707Z,63.00
2019-05-14T00:02:42.752Z,63.20
2019-05-14T00:03:17.868Z,63.40
2019-05-14T00:03:52.980Z,63.40
2019-05-14T00:04:27.748Z,63.30
2019-05-14T00:05:03.188Z,63.30
2019-05-14T00:05:38.382Z,63.40
2019-05-14T00:06:13.442Z,63.40
2019-05-14T00:06:48.011Z,63.60
2019-05-14T00:07:23.248Z,64.40
2019-05-14T00:07:58.458Z,63.80
2019-05-14T00:08:33.665Z,63.80
2019-05-14T00:09:08.369Z,64.00
2019-05-14T00:09:44.352Z,63.90
2019-05-14T00:10:19.292Z,64.20
2019-05-14T00:10:54.365Z,64.30
2019-05-14T00:11:31.188Z,64.50
2019-05-14T00:12:05.856Z,64.60
2019-05-14T00:12:41.822Z,64.90
2019-05-14T00:13:17.349Z,65.00
2019-05-14T00:13:52.190Z,64.90
2019-05-14T00:14:38.754Z,64.90
2019-05-14T00:15:05.024Z,64.90
2019-05-14T00:15:41.461Z,64.90
2019-05-14T00:16:16.364Z,64.90
2019-05-14T00:16:51.961Z,65.00
2019-05-14T00:17:26.841Z,64.90
2019-05-14T00:18:02.008Z,64.80
2019-05-14T00:18:36.840Z,65.70
2019-05-14T00:19:12.119Z,64.90
2019-05-14T00:19:47.181Z,64.80
2019-05-14T00:20:22.647Z,64.90
2019-05-14T00:20:57.213Z,64.90
2019-05-14T00:21:32.280Z,65.00
2019-05-14T00:22:07.508Z,65.20
2019-05-14T00:22:42.457Z,64.90
2019-05-14T00:23:17.224Z,64.40
2019-05-14T00:23:52.350Z,64.40
2019-05-14T00:24:27.377Z,64.60
2019-05-14T00:25:02.864Z,64.60
2019-05-14T00:25:37.577Z,65.00
2019-05-14T00:26:12.596Z,64.80
2019-05-14T00:26:47.759Z,64.80
2019-05-14T00:27:22.880Z,64.70
2019-05-14T00:27:57.392Z,64.70
2019-05-14T00:28:32.443Z,65.00
2019-05-14T00:29:07.557Z,65.80
2019-05-14T00:29:42.458Z,65.30
2019-05-14T00:30:17.219Z,65.20
2019-05-14T00:30:52.583Z,64.30
2019-05-14T00:31:27.615Z,64.30
2019-05-14T00:32:02.731Z,64.30
2019-05-14T00:32:37.523Z,64.30
2019-05-14T00:33:12.465Z,64.40
2019-05-14T00:33:47.599Z,64.90
2019-05-14T00:34:22.732Z,65.40
2019-05-14T00:34:58.184Z,65.80
2019-05-14T00:35:35.780Z,65.70
2019-05-14T00:36:11.278Z,65.70
2019-05-14T00:36:46.402Z,65.60
2019-05-14T00:37:21.850Z,65.70
2019-05-14T00:37:57.157Z,65.90
2019-05-14T00:38:32.074Z,66.20
2019-05-14T00:39:11.025Z,66.30
2019-05-14T00:39:45.595Z,66.40
2019-05-14T00:40:22.020Z,65.80
2019-05-14T00:40:57.354Z,65.70
2019-05-14T00:41:32.426Z,65.50
2019-05-14T00:42:06.975Z,65.60
2019-05-14T00:42:42.136Z,65.90
2019-05-14T00:43:17.271Z,66.40
2019-05-14T00:43:52.181Z,66.40
2019-05-14T00:44:26.997Z,66.50
2019-05-14T00:45:02.117Z,66.50
2019-05-14T00:45:37.018Z,66.40
2019-05-14T00:46:12.189Z,66.60
2019-05-14T00:46:46.986Z,66.60
2019-05-14T00:47:21.936Z,66.50
2019-05-14T00:47:57.058Z,66.30
2019-05-14T00:48:51.574Z,66.10
2019-05-14T00:49:26.685Z,66.00
2019-05-14T00:50:02.164Z,65.90
2019-05-14T00:50:37.402Z,65.90
2019-05-14T00:51:12.076Z,65.80
2019-05-14T00:51:47.186Z,65.90
2019-05-14T00:52:22.413Z,66.20
2019-05-14T00:52:57.352Z,65.90
2019-05-14T00:53:32.353Z,65.80
2019-05-14T00:54:07.470Z,65.60
2019-05-14T00:54:42.570Z,65.60
2019-05-14T00:55:17.782Z,65.50
2019-05-14T00:55:52.509Z,65.40
2019-05-14T00:56:27.487Z,65.60
2019-05-14T00:57:02.714Z,65.60
2019-05-14T00:57:37.869Z,65.80
2019-05-14T00:58:12.500Z,65.80
2019-05-14T00:58:47.645Z,66.80
2019-05-14T00:59:22.777Z,66.00
2019-05-14T00:59:57.761Z,65.80
2019-05-14T01:00:32.462Z,65.80
2019-05-14T01:01:07.557Z,65.80
2019-05-14T01:01:42.729Z,65.90
2019-05-14T01:02:18.005Z,65.50
2019-05-14T01:02:53.018Z,65.10
2019-05-14T01:03:28.017Z,65.00
2019-05-14T01:04:03.080Z,65.00
2019-05-14T01:04:38.294Z,65.00
2019-05-14T01:05:12.885Z,65.00
2019-05-14T01:05:48.037Z,65.70
2019-05-14T01:06:23.161Z,64.70
2019-05-14T01:06:58.054Z,64.60
2019-05-14T01:07:32.796Z,64.90
2019-05-14T01:08:07.906Z,65.00
2019-05-14T01:08:42.779Z,65.10
2019-05-14T01:09:17.937Z,65.10
2019-05-14T01:09:52.671Z,65.00
2019-05-14T01:10:27.544Z,65.30
2019-05-14T01:11:02.677Z,65.60
2019-05-14T01:11:37.836Z,65.80
2019-05-14T01:12:12.490Z,66.20
2019-05-14T01:12:47.541Z,66.50
2019-05-14T01:13:22.604Z,66.50
2019-05-14T01:13:57.899Z,66.80
2019-05-14T01:14:32.737Z,66.90
2019-05-14T01:15:14.032Z,67.20
2019-05-14T01:15:48.055Z,67.30
2019-05-14T01:16:23.238Z,67.40
2019-05-14T01:16:57.922Z,67.50
2019-05-14T01:17:32.905Z,67.60
2019-05-14T01:18:07.961Z,67.40
2019-05-14T01:18:43.034Z,67.60
2019-05-14T01:19:17.596Z,67.70
2019-05-14T01:19:52.748Z,67.80
2019-05-14T01:20:28.183Z,67.80
2019-05-14T01:21:03.148Z,67.80
2019-05-14T01:21:37.900Z,67.70
2019-05-14T01:22:12.979Z,67.70
2019-05-14T01:22:48.009Z,67.70
2019-05-14T01:23:23.172Z,67.90
2019-05-14T01:23:57.873Z,67.80
2019-05-14T01:24:32.912Z,67.70
2019-05-14T01:25:08.337Z,67.90
2019-05-14T01:25:43.405Z,68.00
2019-05-14T01:26:18.162Z,68.10
2019-05-14T01:26:53.379Z,68.30
2019-05-14T01:27:28.508Z,68.30
2019-05-14T01:28:03.427Z,68.40
2019-05-14T01:28:38.199Z,68.40
2019-05-14T01:29:13.415Z,68.20
2019-05-14T01:29:48.598Z,68.40
2019-05-14T01:30:23.753Z,68.40
2019-05-14T01:30:58.452Z,68.50
2019-05-14T01:31:33.795Z,68.40
2019-05-14T01:32:08.917Z,68.30
2019-05-14T01:32:43.977Z,68.10
2019-05-14T01:33:18.526Z,68.10
2019-05-14T01:33:53.675Z,68.10
2019-05-14T01:34:28.811Z,68.30
2019-05-14T01:35:04.530Z,68.40
2019-05-14T01:35:39.283Z,68.50
2019-05-14T01:36:14.341Z,68.70
2019-05-14T01:36:49.384Z,68.70
2019-05-14T01:37:24.523Z,68.80
2019-05-14T01:37:59.290Z,69.70
2019-05-14T01:38:34.224Z,69.10
2019-05-14T01:39:11.872Z,69.10
2019-05-14T01:39:46.120Z,68.90
2019-05-14T01:40:21.882Z,68.80
2019-05-14T01:40:57.059Z,68.80
2019-05-14T01:41:32.114Z,68.80
2019-05-14T01:42:07.070Z,68.90
2019-05-14T01:42:41.901Z,69.00
2019-05-14T01:43:17.073Z,69.10
2019-05-14T01:43:51.985Z,68.90
2019-05-14T01:44:27.138Z,68.80
2019-05-14T01:45:02.584Z,68.80
2019-05-14T01:45:37.671Z,68.90
2019-05-14T01:46:12.746Z,69.00
2019-05-14T01:46:47.919Z,69.10
2019-05-14T01:47:22.422Z,69.10
2019-05-14T01:47:57.561Z,69.10
2019-05-14T01:48:32.612Z,69.20
2019-05-14T01:49:07.900Z,69.50
2019-05-14T01:49:42.985Z,69.60
2019-05-14T01:50:18.290Z,69.60
2019-05-14T01:50:53.235Z,69.80
2019-05-14T01:51:28.357Z,69.40
2019-05-14T01:52:03.107Z,69.00
2019-05-14T01:52:37.979Z,68.80
2019-05-14T01:53:13.042Z,69.20
2019-05-14T01:53:48.229Z,68.60
2019-05-14T01:54:22.905Z,68.60
2019-05-14T01:54:58.050Z,68.50
2019-05-14T01:55:33.181Z,68.50
2019-05-14T01:56:08.156Z,68.40
2019-05-14T01:56:42.872Z,68.40
2019-05-14T01:57:18.105Z,68.50
2019-05-14T01:57:53.054Z,68.80
2019-05-14T01:58:28.169Z,68.80
2019-05-14T01:59:02.885Z,69.10
2019-05-14T01:59:37.882Z,69.00
2019-05-14T02:00:14.130Z,69.20
2019-05-14T02:00:49.254Z,69.40
2019-05-14T02:01:23.861Z,69.40
2019-05-14T02:01:58.925Z,69.10
2019-05-14T02:02:34.052Z,69.00
2019-05-14T02:03:08.993Z,69.00
2019-05-14T02:03:43.708Z,68.90
2019-05-14T02:04:18.988Z,68.80
2019-05-14T02:04:53.933Z,68.70
2019-05-14T02:05:30.948Z,68.20
2019-05-14T02:06:05.386Z,67.90
2019-05-14T02:06:41.354Z,68.10
2019-05-14T02:07:16.673Z,68.10
2019-05-14T02:07:52.658Z,68.00
2019-05-14T02:08:27.384Z,68.00
2019-05-14T02:09:02.534Z,68.00
2019-05-14T02:09:37.668Z,67.90
2019-05-14T02:10:12.796Z,67.60
2019-05-14T02:10:47.548Z,67.60
2019-05-14T02:11:22.739Z,67.40
2019-05-14T02:11:57.631Z,67.30
2019-05-14T02:12:32.733Z,67.30
2019-05-14T02:13:07.436Z,67.40
2019-05-14T02:13:42.373Z,67.40
2019-05-14T02:14:17.506Z,67.50
2019-05-14T02:14:52.564Z,67.50
2019-05-14T02:15:37.117Z,67.50
2019-05-14T02:16:03.857Z,67.20
2019-05-14T02:16:38.988Z,66.90
2019-05-14T02:17:13.891Z,66.80
2019-05-14T02:17:48.588Z,66.80
2019-05-14T02:18:23.803Z,66.90
2019-05-14T02:18:58.740Z,67.00
2019-05-14T02:19:33.825Z,66.90
2019-05-14T02:20:09.022Z,66.90
2019-05-14T02:20:44.064Z,67.00
2019-05-14T02:21:19.291Z,67.10
2019-05-14T02:21:54.361Z,67.00
2019-05-14T02:22:28.942Z,67.00
2019-05-14T02:23:04.032Z,66.90
2019-05-14T02:23:39.094Z,66.90
2019-05-14T02:24:14.072Z,67.10
2019-05-14T02:24:48.771Z,67.10
2019-05-14T02:25:23.836Z,67.20
2019-05-14T02:25:58.852Z,67.30
2019-05-14T02:26:33.982Z,67.30
2019-05-14T02:27:08.788Z,67.30
2019-05-14T02:27:43.663Z,67.30
2019-05-14T02:28:18.796Z,67.40
2019-05-14T02:28:53.848Z,67.50
2019-05-14T02:29:28.447Z,67.40
2019-05-14T02:30:03.802Z,67.40
2019-05-14T02:30:52.583Z,67.60
2019-05-14T02:31:15.683Z,67.70
2019-05-14T02:31:50.738Z,67.80
2019-05-14T02:32:29.579Z,67.80
2019-05-14T02:33:03.389Z,67.90
2019-05-14T02:33:39.738Z,67.90
2019-05-14T02:34:14.704Z,67.90
2019-05-14T02:34:50.197Z,67.90
2019-05-14T02:35:25.500Z,68.00
2019-05-14T02:36:00.644Z,68.00
2019-05-14T02:36:35.223Z,68.00
2019-05-14T02:37:10.357Z,68.10
2019-05-14T02:37:45.494Z,68.20
2019-05-14T02:38:20.376Z,68.10
2019-05-14T02:38:55.145Z,67.60
2019-05-14T02:39:30.381Z,67.80
2019-05-14T02:40:09.814Z,67.80
2019-05-14T02:40:43.916Z,68.00
2019-05-14T02:41:19.667Z,68.20
2019-05-14T02:41:54.975Z,68.40
2019-05-14T02:42:30.205Z,68.50
2019-05-14T02:43:05.664Z,68.40
2019-05-14T02:43:41.081Z,68.40
2019-05-14T02:44:18.842Z,69.10
2019-05-14T02:44:53.145Z,68.40
2019-05-14T02:45:30.255Z,68.50
2019-05-14T02:46:11.923Z,68.70
2019-05-14T02:46:41.939Z,68.60
2019-05-14T02:47:19.553Z,68.30
2019-05-14T02:47:53.651Z,68.60
2019-05-14T02:48:29.384Z,68.70
2019-05-14T02:49:04.619Z,68.90
2019-05-14T02:49:40.216Z,69.20
2019-05-14T02:50:15.653Z,69.30
2019-05-14T02:50:50.262Z,69.50
2019-05-14T02:51:25.414Z,69.60
2019-05-14T02:52:00.548Z,70.00
2019-05-14T02:52:35.602Z,69.50
2019-05-14T02:53:10.535Z,69.40
2019-05-14T02:53:45.645Z,69.40
2019-05-14T02:54:20.699Z,69.30
2019-05-14T02:54:55.820Z,69.30
2019-05-14T02:55:30.607Z,69.60
2019-05-14T02:56:05.632Z,69.50
2019-05-14T02:56:40.785Z,69.80
2019-05-14T02:57:15.983Z,69.70
2019-05-14T02:57:50.568Z,69.70
2019-05-14T02:58:25.682Z,69.60
2019-05-14T02:59:05.132Z,69.70
2019-05-14T02:59:39.342Z,69.80
2019-05-14T03:00:14.032Z,69.90
2019-05-14T03:00:49.409Z,70.00
2019-05-14T03:01:24.769Z,70.20
2019-05-14T03:01:59.833Z,70.30
2019-05-14T03:02:34.658Z,70.30
2019-05-14T03:03:09.929Z,71.10
2019-05-14T03:03:45.415Z,70.40
2019-05-14T03:04:20.763Z,70.50
2019-05-14T03:04:55.411Z,70.60
2019-05-14T03:05:30.681Z,70.60
2019-05-14T03:06:09.206Z,70.40
2019-05-14T03:06:42.868Z,70.50
2019-05-14T03:07:19.373Z,70.50
2019-05-14T03:07:54.549Z,70.40
2019-05-14T03:08:30.621Z,70.60
2019-05-14T03:09:09.610Z,70.70
2019-05-14T03:09:43.208Z,70.90
2019-05-14T03:10:19.497Z,71.00
2019-05-14T03:10:54.838Z,71.00
2019-05-14T03:11:30.394Z,71.10
2019-05-14T03:12:05.180Z,71.20
2019-05-14T03:12:40.303Z,71.10
2019-05-14T03:13:15.394Z,71.10
2019-05-14T03:13:50.528Z,71.00
2019-05-14T03:14:25.346Z,71.00
2019-05-14T03:15:02.107Z,71.10
2019-05-14T03:15:39.145Z,71.00
2019-05-14T03:16:25.982Z,71.10
2019-05-14T03:16:50.357Z,70.90
2019-05-14T03:17:25.303Z,71.00
2019-05-14T03:18:00.554Z,71.00
2019-05-14T03:18:35.604Z,70.90
2019-05-14T03:19:10.365Z,71.20
2019-05-14T03:19:45.583Z,71.20
2019-05-14T03:20:20.643Z,71.20
2019-05-14T03:20:55.592Z,71.20
2019-05-14T03:21:30.702Z,71.20
2019-05-14T03:22:09.761Z,70.70
2019-05-14T03:22:58.683Z,71.40
2019-05-14T03:23:23.010Z,71.40
2019-05-14T03:23:56.058Z,71.50
2019-05-14T03:24:30.989Z,71.60
2019-05-14T03:25:10.023Z,71.70
2019-05-14T03:25:44.181Z,71.80
2019-05-14T03:26:19.880Z,71.90
2019-05-14T03:26:55.288Z,71.90
2019-05-14T03:27:31.041Z,72.00
2019-05-14T03:28:09.023Z,72.20
2019-05-14T03:28:42.447Z,72.00
2019-05-14T03:29:19.595Z,72.90
2019-05-14T03:29:54.889Z,72.10
2019-05-14T03:30:32.421Z,71.70
2019-05-14T03:31:12.154Z,71.90
2019-05-14T03:31:43.594Z,72.00
2019-05-14T03:32:22.311Z,72.00
2019-05-14T03:33:01.910Z,72.10
2019-05-14T03:33:33.829Z,72.00
2019-05-14T03:34:13.521Z,71.90
2019-05-14T03:34:45.712Z,71.80
2019-05-14T03:35:24.400Z,72.00
2019-05-14T03:36:07.047Z,72.10
2019-05-14T03:36:35.512Z,72.10
2019-05-14T03:37:13.149Z,72.10
2019-05-14T03:37:49.712Z,72.30
2019-05-14T03:38:24.044Z,71.90
2019-05-14T03:38:59.386Z,71.30
2019-05-14T03:39:34.692Z,71.10
2019-05-14T03:40:10.006Z,70.90
2019-05-14T03:40:44.595Z,70.80
2019-05-14T03:41:19.798Z,70.80
2019-05-14T03:41:55.122Z,70.90
2019-05-14T03:42:30.146Z,71.10
2019-05-14T03:43:04.902Z,70.90
2019-05-14T03:43:40.055Z,71.10
2019-05-14T03:44:15.144Z,71.40
2019-05-14T03:44:50.331Z,71.50
2019-05-14T03:45:25.119Z,71.80
2019-05-14T03:46:00.176Z,70.90
2019-05-14T03:46:45.916Z,70.70
2019-05-14T03:47:12.048Z,70.60
2019-05-14T03:47:50.127Z,70.60
2019-05-14T03:48:23.371Z,70.80
2019-05-14T03:49:00.040Z,71.10
2019-05-14T03:49:35.234Z,71.40
2019-05-14T03:50:10.473Z,71.50
2019-05-14T03:50:45.601Z,71.40
2019-05-14T03:51:20.612Z,71.50
2019-05-14T03:51:55.806Z,71.60
2019-05-14T03:52:30.546Z,71.50
2019-05-14T03:53:05.501Z,71.30
2019-05-14T03:53:55.245Z,71.30
2019-05-14T03:54:19.450Z,71.40
2019-05-14T03:54:53.815Z,71.30
2019-05-14T03:55:29.469Z,71.30
2019-05-14T03:56:04.727Z,71.20
2019-05-14T03:56:39.769Z,71.50
2019-05-14T03:57:14.689Z,71.20
2019-05-14T03:57:50.276Z,71.30
2019-05-14T03:58:25.790Z,71.90
2019-05-14T03:59:01.474Z,71.40
2019-05-14T03:59:40.055Z,71.20
2019-05-14T04:00:13.270Z,71.20
2019-05-14T04:01:00.445Z,70.90
2019-05-14T04:01:33.877Z,71.00
2019-05-14T04:02:09.951Z,71.00
2019-05-14T04:02:45.234Z,71.00
2019-05-14T04:03:20.875Z,70.80
2019-05-14T04:03:59.113Z,70.70
2019-05-14T04:04:32.338Z,70.70
2019-05-14T04:05:09.481Z,70.50
2019-05-14T04:05:44.723Z,70.50
2019-05-14T04:06:20.175Z,70.70
2019-05-14T04:06:59.681Z,70.60
2019-05-14T04:07:35.002Z,70.60
2019-05-14T04:08:10.584Z,70.70
2019-05-14T04:08:45.943Z,70.80
2019-05-14T04:09:22.280Z,70.90
2019-05-14T04:09:59.595Z,71.00
2019-05-14T04:10:39.099Z,71.20
2019-05-14T04:11:14.156Z,71.20
2019-05-14T04:11:51.195Z,71.30
2019-05-14T04:12:29.502Z,71.40
2019-05-14T04:13:09.026Z,71.50
2019-05-14T04:13:49.389Z,71.70
2019-05-14T04:14:25.138Z,71.50
2019-05-14T04:15:03.129Z,71.30
2019-05-14T04:15:40.556Z,71.30
2019-05-14T04:16:15.897Z,71.40
2019-05-14T04:17:05.280Z,71.40
2019-05-14T04:17:37.693Z,71.60
2019-05-14T04:18:11.132Z,71.60
2019-05-14T04:18:50.402Z,71.70
2019-05-14T04:19:29.557Z,71.90
2019-05-14T04:20:09.173Z,71.30
2019-05-14T04:20:45.037Z,71.40
2019-05-14T04:21:21.778Z,71.50
2019-05-14T04:21:59.899Z,71.50
2019-05-14T04:22:35.044Z,71.50
2019-05-14T04:23:11.945Z,71.50
2019-05-14T04:23:50.958Z,71.60
2019-05-14T04:24:29.554Z,71.50
2019-05-14T04:25:11.346Z,71.50
2019-05-14T04:25:49.975Z,71.40
2019-05-14T04:26:25.120Z,71.40
2019-05-14T04:27:07.780Z,71.20
2019-05-14T04:27:41.002Z,71.20
2019-05-14T04:28:19.402Z,71.50
2019-05-14T04:29:19.610Z,71.30
2019-05-14T04:29:54.966Z,71.30
2019-05-14T04:30:32.995Z,71.80
2019-05-14T04:31:09.848Z,72.50
2019-05-14T04:31:50.130Z,71.80
2019-05-14T04:32:29.215Z,72.00
2019-05-14T04:33:04.735Z,71.90
2019-05-14T04:33:41.728Z,72.10
2019-05-14T04:34:19.467Z,71.40
2019-05-14T04:34:53.939Z,71.10
2019-05-14T04:35:29.725Z,71.40
2019-05-14T04:36:05.545Z,71.50
2019-05-14T04:36:40.681Z,71.60
2019-05-14T04:37:15.826Z,72.30
2019-05-14T04:37:50.917Z,71.80
2019-05-14T04:38:29.631Z,72.00
2019-05-14T04:39:02.678Z,71.90
2019-05-14T04:39:39.528Z,71.60
2019-05-14T04:40:14.435Z,71.60
2019-05-14T04:40:50.652Z,71.50
2019-05-14T04:41:25.175Z,71.40
2019-05-14T04:42:00.395Z,71.50
2019-05-14T04:42:35.521Z,71.60
2019-05-14T04:43:10.542Z,71.80
2019-05-14T04:43:45.314Z,71.90
2019-05-14T04:44:20.450Z,71.80
2019-05-14T04:44:55.403Z,71.50
2019-05-14T04:45:30.659Z,71.50
2019-05-14T04:46:05.390Z,71.10
2019-05-14T04:46:40.359Z,70.80
2019-05-14T04:47:28.016Z,70.80
2019-05-14T04:47:52.289Z,70.90
2019-05-14T04:48:36.573Z,70.90
2019-05-14T04:49:04.613Z,71.10
2019-05-14T04:49:40.143Z,71.00
2019-05-14T04:50:15.507Z,71.00
2019-05-14T04:50:50.264Z,71.00
2019-05-14T04:51:25.427Z,71.00
2019-05-14T04:52:00.398Z,71.00
2019-05-14T04:52:39.944Z,70.90
2019-05-14T04:53:13.487Z,71.60
2019-05-14T04:53:49.867Z,71.00
2019-05-14T04:54:25.198Z,71.20
2019-05-14T04:55:00.451Z,71.00
2019-05-14T04:55:35.158Z,71.40
2019-05-14T04:56:10.437Z,69.90
2019-05-14T04:56:45.593Z,69.80
2019-05-14T04:57:25.364Z,69.80
2019-05-14T04:57:59.055Z,69.40
2019-05-14T04:58:41.065Z,69.20
2019-05-14T04:59:14.109Z,69.20
2019-05-14T04:59:49.620Z,69.30
2019-05-14T05:00:24.600Z,69.10
2019-05-14T05:01:00.579Z,68.90
2019-05-14T05:01:36.013Z,69.10
2019-05-14T05:02:11.141Z,69.30
2019-05-14T05:02:49.439Z,69.60
2019-05-14T05:03:22.956Z,69.60
2019-05-14T05:03:59.117Z,69.80
2019-05-14T05:04:34.361Z,69.90
2019-05-14T05:05:09.437Z,69.70
2019-05-14T05:05:44.593Z,69.60
2019-05-14T05:06:19.539Z,69.60
2019-05-14T05:06:54.682Z,69.70
2019-05-14T05:07:29.973Z,69.70
2019-05-14T05:08:08.867Z,69.70
2019-05-14T05:08:43.004Z,69.50
2019-05-14T05:09:20.010Z,69.30
2019-05-14T05:09:54.394Z,69.30
2019-05-14T05:10:29.952Z,69.00
2019-05-14T05:11:05.669Z,68.90
2019-05-14T05:11:41.323Z,69.10
2019-05-14T05:12:19.435Z,69.00
2019-05-14T05:12:52.915Z,69.80
2019-05-14T05:13:29.143Z,69.20
2019-05-14T05:14:04.778Z,69.20
2019-05-14T05:14:39.961Z,68.50
2019-05-14T05:15:14.900Z,68.60
2019-05-14T05:15:50.130Z,69.70
2019-05-14T05:16:25.201Z,69.10
2019-05-14T05:16:59.996Z,69.30
2019-05-14T05:17:44.326Z,69.30
2019-05-14T05:18:11.915Z,69.10
2019-05-14T05:18:49.080Z,69.00
2019-05-14T05:19:23.320Z,68.30
2019-05-14T05:19:59.385Z,68.20
2019-05-14T05:20:35.371Z,68.50
2019-05-14T05:21:10.488Z,68.40
2019-05-14T05:21:45.183Z,68.40
2019-05-14T05:22:20.071Z,68.00
2019-05-14T05:22:55.126Z,67.80
2019-05-14T05:23:30.267Z,67.70
2019-05-14T05:24:05.022Z,67.80
2019-05-14T05:24:40.181Z,67.70
2019-05-14T05:25:15.371Z,67.50
2019-05-14T05:25:50.416Z,67.60
2019-05-14T05:26:25.282Z,67.70
2019-05-14T05:27:00.335Z,67.70
2019-05-14T05:27:35.218Z,67.60
2019-05-14T05:28:10.275Z,66.80
2019-05-14T05:28:59.092Z,66.30
2019-05-14T05:29:21.602Z,66.20
2019-05-14T05:29:58.814Z,66.20
2019-05-14T05:30:33.423Z,66.30
2019-05-14T05:31:09.287Z,66.40
2019-05-14T05:31:44.801Z,66.70
2019-05-14T05:32:19.872Z,67.00
2019-05-14T05:32:54.746Z,67.20
2019-05-14T05:33:29.592Z,67.30
2019-05-14T05:34:04.742Z,67.30
2019-05-14T05:34:39.609Z,67.60
2019-05-14T05:35:14.734Z,67.60
2019-05-14T05:35:49.530Z,67.50
2019-05-14T05:36:24.767Z,67.50
2019-05-14T05:36:59.882Z,66.60
2019-05-14T05:37:34.941Z,66.30
2019-05-14T05:38:09.452Z,66.40
2019-05-14T05:38:44.581Z,66.40
2019-05-14T05:39:19.713Z,66.70
2019-05-14T05:39:54.770Z,66.80
2019-05-14T05:40:29.531Z,66.80
2019-05-14T05:41:04.593Z,67.00
2019-05-14T05:41:39.586Z,66.40
2019-05-14T05:42:14.738Z,66.20
2019-05-14T05:42:49.645Z,65.80
2019-05-14T05:43:24.702Z,66.70
2019-05-14T05:43:59.839Z,66.10
2019-05-14T05:44:34.890Z,66.00
2019-05-14T05:45:09.855Z,66.30
2019-05-14T05:45:44.981Z,66.30
2019-05-14T05:46:20.048Z,66.40
2019-05-14T05:46:55.029Z,65.90
2019-05-14T05:47:29.876Z,66.50
2019-05-14T05:48:05.441Z,66.50
2019-05-14T05:48:40.381Z,66.60
2019-05-14T05:49:15.462Z,66.60
2019-05-14T05:49:50.221Z,66.60
2019-05-14T05:50:25.158Z,67.00
2019-05-14T05:51:00.279Z,67.00
2019-05-14T05:51:35.405Z,67.10
2019-05-14T05:52:10.036Z,67.10
2019-05-14T05:52:45.439Z,67.10
2019-05-14T05:53:20.984Z,67.30
2019-05-14T05:53:56.171Z,67.30
2019-05-14T05:54:30.941Z,67.40
2019-05-14T05:55:09.115Z,67.20
2019-05-14T05:55:44.608Z,67.80
2019-05-14T05:56:19.748Z,66.90
2019-05-14T05:56:55.546Z,66.70
2019-05-14T05:57:30.431Z,66.70
2019-05-14T05:58:08.502Z,66.60
2019-05-14T05:58:42.813Z,66.00
2019-05-14T05:59:18.969Z,65.40
2019-05-14T05:59:54.308Z,65.20
2019-05-14T06:00:40.052Z,65.10
2019-05-14T06:01:14.504Z,65.00
2019-05-14T06:01:50.261Z,64.80
2019-05-14T06:02:25.624Z,64.90
2019-05-14T06:03:00.566Z,65.10
2019-05-14T06:03:35.808Z,65.10
2019-05-14T06:04:10.615Z,65.70
2019-05-14T06:04:47.934Z,64.80
2019-05-14T06:05:22.317Z,64.70
2019-05-14T06:05:59.367Z,64.90
2019-05-14T06:06:34.123Z,64.70
2019-05-14T06:07:09.296Z,64.90
2019-05-14T06:07:44.366Z,64.70
2019-05-14T06:08:19.304Z,64.80
2019-05-14T06:08:54.037Z,65.20
2019-05-14T06:09:29.127Z,65.20
2019-05-14T06:10:07.895Z,65.20
2019-05-14T06:10:42.321Z,65.10
2019-05-14T06:11:19.457Z,65.00
2019-05-14T06:11:53.649Z,64.70
2019-05-14T06:12:29.657Z,64.50
2019-05-14T06:13:04.820Z,64.60
2019-05-14T06:13:39.412Z,64.30
2019-05-14T06:14:14.567Z,64.30
2019-05-14T06:14:49.695Z,64.00
2019-05-14T06:15:24.572Z,63.80
2019-05-14T06:15:59.423Z,64.20
2019-05-14T06:16:34.497Z,64.30
2019-05-14T06:17:10.295Z,64.50
2019-05-14T06:17:45.526Z,64.60
2019-05-14T06:18:22.148Z,64.60
2019-05-14T06:18:58.843Z,64.80
2019-05-14T06:19:33.671Z,65.00
2019-05-14T06:20:09.274Z,65.00
2019-05-14T06:20:43.791Z,64.90
2019-05-14T06:21:19.501Z,64.90
2019-05-14T06:21:54.796Z,65.10
2019-05-14T06:22:29.735Z,65.00
2019-05-14T06:23:04.601Z,65.10
2019-05-14T06:23:39.822Z,65.20
2019-05-14T06:24:14.779Z,65.30
2019-05-14T06:24:49.982Z,65.00
2019-05-14T06:25:24.742Z,64.90
2019-05-14T06:26:00.153Z,65.00
2019-05-14T06:26:38.349Z,64.60
2019-05-14T06:27:12.099Z,64.80
2019-05-14T06:27:48.624Z,64.90
2019-05-14T06:28:23.424Z,64.90
2019-05-14T06:28:59.703Z,65.10
2019-05-14T06:29:34.934Z,65.10
2019-05-14T06:30:10.259Z,65.10
2019-05-14T06:30:45.561Z,65.00
2019-05-14T06:31:20.559Z,65.00
2019-05-14T06:31:55.678Z,65.00
2019-05-14T06:32:30.379Z,65.50
2019-05-14T06:33:05.680Z,65.30
2019-05-14T06:33:40.821Z,65.30
2019-05-14T06:34:18.588Z,64.20
2019-05-14T06:34:52.156Z,64.50
2019-05-14T06:35:28.477Z,64.80
2019-05-14T06:36:03.877Z,64.80
2019-05-14T06:36:39.697Z,64.70
2019-05-14T06:37:15.914Z,64.50
2019-05-14T06:37:51.049Z,64.30
2019-05-14T06:38:26.008Z,63.40
2019-05-14T06:39:01.066Z,62.90
2019-05-14T06:39:35.832Z,63.30
2019-05-14T06:40:10.918Z,63.50
2019-05-14T06:40:48.765Z,63.20
2019-05-14T06:41:22.953Z,63.10
2019-05-14T06:41:58.573Z,63.00
2019-05-14T06:42:33.955Z,63.20
2019-05-14T06:43:09.326Z,63.30
2019-05-14T06:43:44.382Z,63.40
2019-05-14T06:44:19.196Z,63.60
2019-05-14T06:44:54.341Z,63.40
2019-05-14T06:45:29.369Z,63.40
2019-05-14T06:46:04.546Z,63.20
2019-05-14T06:46:39.321Z,63.00
2019-05-14T06:47:14.184Z,63.10
2019-05-14T06:47:49.311Z,63.00
2019-05-14T06:48:30.794Z,62.80
2019-05-14T06:49:00.940Z,63.10
2019-05-14T06:49:38.336Z,63.40
2019-05-14T06:50:13.260Z,63.50
2019-05-14T06:50:50.490Z,63.10
2019-05-14T06:51:24.768Z,62.90
2019-05-14T06:52:00.005Z,62.30
2019-05-14T06:52:34.910Z,62.30
2019-05-14T06:53:10.154Z,62.20
2019-05-14T06:53:44.933Z,62.20
2019-05-14T06:54:19.928Z,62.20
2019-05-14T06:54:55.047Z,62.40
2019-05-14T06:55:30.170Z,62.60
2019-05-14T06:56:04.711Z,62.10
2019-05-14T06:56:39.843Z,61.70
2019-05-14T06:57:14.993Z,61.90
2019-05-14T06:57:49.940Z,61.90
2019-05-14T06:58:24.632Z,61.90
2019-05-14T06:58:59.689Z,61.50
2019-05-14T06:59:34.638Z,61.50
2019-05-14T07:00:10.284Z,61.60
2019-05-14T07:00:44.986Z,61.80
2019-05-14T07:01:19.937Z,62.10
2019-05-14T07:01:55.084Z,62.10
2019-05-14T07:02:30.231Z,62.10
2019-05-14T07:03:04.809Z,62.70
2019-05-14T07:03:39.907Z,61.60
2019-05-14T07:04:14.963Z,61.40
2019-05-14T07:04:49.920Z,60.90
2019-05-14T07:05:24.679Z,60.30
2019-05-14T07:05:59.758Z,60.40
2019-05-14T07:06:34.700Z,60.40
2019-05-14T07:07:09.825Z,60.30
2019-05-14T07:07:44.601Z,60.20
2019-05-14T07:08:19.528Z,60.10
2019-05-14T07:08:54.655Z,60.30
2019-05-14T07:09:29.737Z,60.10
2019-05-14T07:10:05.856Z,60.00
2019-05-14T07:10:40.910Z,60.40
2019-05-14T07:11:16.015Z,60.80
2019-05-14T07:11:50.969Z,61.10
2019-05-14T07:12:25.733Z,61.20
2019-05-14T07:13:00.851Z,61.20
2019-05-14T07:13:38.270Z,61.20
2019-05-14T07:14:12.540Z,61.10
2019-05-14T07:14:48.167Z,61.00
2019-05-14T07:15:23.360Z,60.20
2019-05-14T07:15:58.646Z,60.00
2019-05-14T07:16:33.815Z,59.70
2019-05-14T07:17:09.191Z,59.70
2019-05-14T07:17:44.461Z,59.80
2019-05-14T07:18:19.519Z,59.90
2019-05-14T07:18:54.490Z,59.20
2019-05-14T07:19:29.665Z,59.30
2019-05-14T07:20:08.832Z,59.70
2019-05-14T07:20:44.491Z,59.90
2019-05-14T07:21:19.628Z,59.90
2019-05-14T07:21:54.870Z,60.30
2019-05-14T07:22:29.848Z,60.50
2019-05-14T07:23:04.913Z,60.20
2019-05-14T07:23:40.149Z,60.00
2019-05-14T07:24:14.664Z,59.90
2019-05-14T07:24:50.091Z,60.20
2019-05-14T07:25:25.318Z,59.70
2019-05-14T07:26:00.356Z,59.10
2019-05-14T07:26:35.107Z,59.20
2019-05-14T07:27:10.258Z,59.20
2019-05-14T07:27:45.135Z,59.20
2019-05-14T07:28:20.211Z,59.30
2019-05-14T07:28:55.060Z,59.40
2019-05-14T07:29:30.326Z,59.50
2019-05-14T07:30:09.383Z,59.90
2019-05-14T07:30:44.523Z,60.10
2019-05-14T07:31:19.105Z,60.40
2019-05-14T07:31:54.275Z,60.70
2019-05-14T07:32:29.409Z,60.30
2019-05-14T07:33:04.633Z,59.60
2019-05-14T07:33:39.567Z,58.80
2019-05-14T07:34:14.705Z,59.00
2019-05-14T07:34:49.583Z,59.10
2019-05-14T07:35:25.393Z,59.10
2019-05-14T07:36:00.167Z,59.70
2019-05-14T07:36:35.114Z,60.10
2019-05-14T07:37:10.185Z,60.00
2019-05-14T07:37:45.272Z,59.50